Time;durP1;ratioP1;P1;durP2;ratioP2;P2;SDS_P1;SDS_P2;PMS_P1;PMS_P2;Temp;Humidity;BMP_temperature;BMP_pressure;BME280_temperature;BME280_humidity;BME280_pressure;Samples;Min_cycle;Max_cycle;Signal;HPM_P1;HPM_P2
2020/12/14 00:01:26;;;;;;;6.40;5.33;;;;;;;3.23;73.97;101879.63;6034296;29;20214;-78
2020/12/14 00:04:36;;;;;;;6.37;5.23;;;;;;;2.84;73.90;101865.34;6033429;29;20704;-78
2020/12/14 00:07:41;;;;;;;7.83;5.83;;;;;;;2.88;75.12;101891.84;6034453;29;20196;-78
2020/12/14 00:10:44;;;;;;;5.73;5.23;;;;;;;3.01;74.84;101886.19;6033969;29;20197;-78
2020/12/14 00:13:47;;;;;;;6.60;5.17;;;;;;;2.95;74.41;101875.97;6027744;29;20205;-81
2020/12/14 00:16:50;;;;;;;7.63;5.37;;;;;;;3.03;74.04;101893.13;6035227;29;20299;-78
2020/12/14 00:19:54;;;;;;;5.83;5.30;;;;;;;3.29;73.22;101879.91;6032190;29;20290;-80
2020/12/14 00:22:59;;;;;;;8.13;5.10;;;;;;;3.12;72.90;101865.31;6029392;29;20576;-79
2020/12/14 00:26:02;;;;;;;7.03;5.60;;;;;;;3.31;74.13;101883.34;6030419;29;20223;-77
2020/12/14 00:29:05;;;;;;;6.37;5.53;;;;;;;3.09;75.02;101889.00;6031014;29;20572;-78
2020/12/14 00:32:09;;;;;;;4.97;4.67;;;;;;;2.81;76.71;101879.94;6046462;29;20670;-78
2020/12/14 00:35:14;;;;;;;4.90;4.50;;;;;;;2.81;75.99;101873.69;6036434;29;20618;-80
2020/12/14 00:38:24;;;;;;;5.80;5.20;;;;;;;2.47;78.29;101868.72;6032569;29;20282;-80
2020/12/14 00:41:28;;;;;;;6.37;4.97;;;;;;;2.56;79.69;101874.25;6033650;29;20197;-78
2020/12/14 00:44:31;;;;;;;5.13;4.73;;;;;;;2.86;78.21;101866.91;6033026;29;20308;-79
2020/12/14 00:47:34;;;;;;;5.20;4.80;;;;;;;2.78;79.25;101873.97;6040058;29;20208;-78
2020/12/14 00:50:38;;;;;;;4.47;4.07;;;;;;;2.54;80.04;101871.72;6027224;29;20237;-79
2020/12/14 00:53:42;;;;;;;4.53;4.13;;;;;;;2.53;80.54;101841.22;6032766;29;20209;-78
2020/12/14 00:56:46;;;;;;;4.47;4.07;;;;;;;2.92;78.49;101843.91;6032117;29;20205;-77
2020/12/14 00:59:50;;;;;;;4.63;4.33;;;;;;;3.04;79.18;101880.50;6032480;29;20257;-85
2020/12/14 01:02:53;;;;;;;4.57;4.27;;;;;;;2.80;80.12;101882.81;6044889;29;20284;-79
2020/12/14 01:05:56;;;;;;;5.07;4.57;;;;;;;2.56;81.99;101879.66;6033300;29;20215;-77
2020/12/14 01:09:01;;;;;;;4.50;4.00;;;;;;;2.75;81.85;101879.69;6009829;29;20258;-77
2020/12/14 01:12:06;;;;;;;4.87;4.40;;;;;;;2.96;80.63;101883.06;6010357;29;20279;-77
2020/12/14 01:15:11;;;;;;;4.60;4.20;;;;;;;2.92;80.01;101876.25;6024602;29;20244;-78
2020/12/14 01:18:22;;;;;;;4.53;4.23;;;;;;;3.13;79.07;101890.44;6031656;29;20337;-78
2020/12/14 01:21:26;;;;;;;4.63;4.23;;;;;;;3.20;78.83;101886.19;6032301;29;20197;-80
2020/12/14 01:24:30;;;;;;;5.13;4.70;;;;;;;3.13;77.75;101893.97;6022662;29;20634;-77
2020/12/14 01:27:33;;;;;;;5.13;4.60;;;;;;;3.16;78.13;101890.13;6009941;29;20197;-79
2020/12/14 01:30:36;;;;;;;4.57;4.27;;;;;;;2.98;77.21;101881.91;6024862;29;20223;-79
2020/12/14 01:33:42;;;;;;;5.20;4.80;;;;;;;3.10;75.84;101890.72;6023782;29;20211;-78
2020/12/14 01:36:48;;;;;;;4.73;4.33;;;;;;;3.14;76.01;101875.94;6031938;29;20198;-84
2020/12/14 01:39:53;;;;;;;5.53;4.87;;;;;;;3.27;76.22;101871.09;6025220;29;20212;-77
2020/12/14 01:42:57;;;;;;;5.03;4.53;;;;;;;3.26;76.35;101860.47;6031572;29;20209;-77
2020/12/14 01:46:00;;;;;;;5.30;4.80;;;;;;;3.22;76.29;101857.22;6033227;29;20212;-78
2020/12/14 01:49:05;;;;;;;4.93;4.63;;;;;;;3.16;76.69;101847.00;6032330;29;20209;-76
2020/12/14 01:52:09;;;;;;;4.73;4.43;;;;;;;3.01;77.25;101816.94;6031825;29;20325;-82
2020/12/14 01:55:19;;;;;;;4.77;4.37;;;;;;;3.10;77.62;101850.28;6010964;29;20211;-76
2020/12/14 01:58:22;;;;;;;4.63;4.33;;;;;;;2.96;78.25;101856.09;6030543;29;20214;-78
2020/12/14 02:01:25;;;;;;;4.77;4.33;;;;;;;2.91;79.57;101853.84;6026993;29;20225;-76
2020/12/14 02:04:33;;;;;;;4.83;4.40;;;;;;;2.76;79.45;101832.84;6033808;29;20232;-79
2020/12/14 02:07:36;;;;;;;4.17;3.97;;;;;;;2.49;79.56;101842.47;6037037;29;20264;-77
2020/12/14 02:10:41;;;;;;;4.83;4.43;;;;;;;2.83;80.20;101850.16;6030319;29;20206;-76
2020/12/14 02:13:44;;;;;;;5.20;4.67;;;;;;;3.04;79.01;101858.94;6027294;29;20330;-77
2020/12/14 02:16:48;;;;;;;4.17;3.97;;;;;;;2.87;79.76;101851.59;6022625;29;20760;-77
2020/12/14 02:19:52;;;;;;;4.30;4.10;;;;;;;2.48;79.07;101835.41;6030922;29;20202;-76
2020/12/14 02:22:56;;;;;;;5.07;4.67;;;;;;;2.64;81.13;101851.03;6031781;29;20890;-77
2020/12/14 02:26:00;;;;;;;4.83;4.43;;;;;;;2.44;80.71;101823.19;6030204;29;20224;-78
2020/12/14 02:29:03;;;;;;;4.80;4.40;;;;;;;2.75;79.44;101852.72;6029046;29;20302;-78
2020/12/14 02:32:11;;;;;;;4.57;4.27;;;;;;;2.72;79.45;101858.41;6025797;29;20202;-77
2020/12/14 02:35:17;;;;;;;4.70;4.30;;;;;;;2.72;78.90;101863.78;6022330;29;20207;-76
2020/12/14 02:38:24;;;;;;;4.47;4.17;;;;;;;2.83;77.74;101855.53;6024456;29;20710;-78
2020/12/14 02:41:28;;;;;;;4.33;4.00;;;;;;;3.07;77.83;101864.03;6021142;29;20677;-78
2020/12/14 02:44:31;;;;;;;5.03;4.70;;;;;;;3.05;77.49;101864.22;6031178;29;20228;-78
2020/12/14 02:47:35;;;;;;;4.73;4.40;;;;;;;3.24;75.41;101870.53;6034886;29;20225;-77
2020/12/14 02:50:38;;;;;;;4.73;4.33;;;;;;;3.26;75.39;101869.44;6030359;29;20268;-78
2020/12/14 02:53:42;;;;;;;4.60;4.17;;;;;;;3.14;75.44;101871.41;6029611;29;20207;-76
2020/12/14 02:56:46;;;;;;;4.83;4.53;;;;;;;3.02;76.64;101874.41;6030657;29;20249;-77
2020/12/14 02:59:50;;;;;;;4.40;4.10;;;;;;;3.04;77.27;101858.94;6013991;29;20691;-77
2020/12/14 03:02:54;;;;;;;4.60;4.30;;;;;;;2.60;78.73;101867.59;6028350;29;20194;-77
2020/12/14 03:05:58;;;;;;;4.67;4.37;;;;;;;2.92;77.04;101871.72;6030345;29;20231;-78
2020/12/14 03:09:01;;;;;;;4.70;4.30;;;;;;;2.79;76.24;101875.69;6030597;29;20541;-78
2020/12/14 03:12:06;;;;;;;4.30;4.10;;;;;;;3.03;74.71;101873.44;6046491;29;20229;-81
2020/12/14 03:15:11;;;;;;;4.70;4.30;;;;;;;3.04;73.94;101857.09;6035283;29;20525;-77
2020/12/14 03:18:22;;;;;;;4.00;3.80;;;;;;;2.99;74.38;101872.00;6029531;29;20201;-80
2020/12/14 03:21:25;;;;;;;5.10;4.80;;;;;;;3.12;73.03;101875.25;6031033;29;20364;-78
2020/12/14 03:24:29;;;;;;;4.87;4.57;;;;;;;3.03;74.71;101878.81;6034213;29;20224;-77
2020/12/14 03:27:32;;;;;;;4.90;4.50;;;;;;;3.09;74.72;101875.53;6034060;29;20309;-77
2020/12/14 03:30:36;;;;;;;4.63;4.23;;;;;;;3.04;74.97;101875.13;6029514;29;20203;-77
2020/12/14 03:33:39;;;;;;;4.17;3.83;;;;;;;3.33;72.58;101864.28;6034678;29;20584;-77
2020/12/14 03:36:42;;;;;;;5.00;4.60;;;;;;;3.20;73.35;101832.25;6025954;29;20213;-77
2020/12/14 03:39:45;;;;;;;4.13;3.93;;;;;;;3.15;74.42;101862.34;6034868;29;20199;-79
2020/12/14 03:42:50;;;;;;;5.90;3.90;;;;;;;3.06;73.56;101862.34;6016324;29;20206;-77
2020/12/14 03:45:53;;;;;;;4.80;4.50;;;;;;;3.08;74.30;101865.75;6038830;29;20228;-79
2020/12/14 03:48:56;;;;;;;4.27;4.00;;;;;;;3.22;73.54;101851.81;6038507;29;20203;-77
2020/12/14 03:52:00;;;;;;;4.23;3.93;;;;;;;3.28;73.78;101867.44;6032977;29;20245;-79
2020/12/14 03:55:03;;;;;;;5.20;4.80;;;;;;;3.33;72.45;101858.88;6034546;29;20203;-79
2020/12/14 03:58:14;;;;;;;4.07;3.90;;;;;;;3.27;72.24;101849.53;6033658;29;20202;-78
2020/12/14 04:01:19;;;;;;;4.37;4.07;;;;;;;3.09;73.55;101857.50;6028507;29;20228;-77
2020/12/14 04:04:23;;;;;;;4.23;4.00;;;;;;;3.14;72.48;101854.38;6034214;29;20209;-83
2020/12/14 04:07:27;;;;;;;4.87;4.47;;;;;;;3.20;74.08;101851.13;6031424;29;20213;-80
2020/12/14 04:10:30;;;;;;;7.43;4.73;;;;;;;3.15;73.60;101851.56;6032811;29;20249;-78
2020/12/14 04:13:35;;;;;;;5.17;4.67;;;;;;;3.35;73.38;101862.28;6031295;29;20212;-78
2020/12/14 04:16:42;;;;;;;5.00;4.60;;;;;;;3.11;73.33;101854.66;6024774;29;20221;-82
2020/12/14 04:19:45;;;;;;;6.70;4.90;;;;;;;3.15;74.34;101856.09;6043051;29;20214;-79
2020/12/14 04:22:49;;;;;;;5.60;5.00;;;;;;;3.27;73.60;101860.31;6039597;29;20201;-77
2020/12/14 04:25:52;;;;;;;5.17;4.77;;;;;;;3.41;72.02;101846.38;6032932;29;20225;-78
2020/12/14 04:28:56;;;;;;;4.60;4.20;;;;;;;3.39;72.34;101848.34;6016784;29;20212;-76
2020/12/14 04:32:00;;;;;;;5.20;4.70;;;;;;;3.47;72.96;101861.97;6032553;29;20259;-78
2020/12/14 04:35:10;;;;;;;5.30;4.90;;;;;;;3.34;73.26;101845.25;6032601;29;20209;-76
2020/12/14 04:38:19;;;;;;;4.73;4.33;;;;;;;3.43;72.35;101857.88;6033717;29;20200;-78
2020/12/14 04:41:22;;;;;;;4.20;4.00;;;;;;;3.26;72.42;101847.00;6045783;29;20271;-79
2020/12/14 04:44:30;;;;;;;5.00;4.63;;;;;;;3.38;72.67;101860.16;6027801;29;20221;-78
2020/12/14 04:47:34;;;;;;;8.00;4.23;;;;;;;3.31;72.44;101859.06;6045614;29;20656;-77
2020/12/14 04:50:39;;;;;;;4.77;4.30;;;;;;;3.41;71.49;101849.09;6029752;29;20700;-80
2020/12/14 04:53:45;;;;;;;4.10;3.90;;;;;;;3.34;73.02;101853.34;6027239;29;20211;-81
2020/12/14 04:56:52;;;;;;;4.60;3.97;;;;;;;3.36;71.79;101859.47;6029591;29;20301;-79
2020/12/14 04:59:57;;;;;;;4.33;4.03;;;;;;;3.32;69.56;101825.66;6016243;29;20213;-78
2020/12/14 05:03:00;;;;;;;4.47;4.10;;;;;;;3.45;70.81;101852.31;6031054;29;20617;-76
2020/12/14 05:06:06;;;;;;;4.17;3.97;;;;;;;3.46;69.83;101854.91;6038716;29;20258;-78
2020/12/14 05:09:16;;;;;;;3.70;3.50;;;;;;;3.06;71.87;101856.94;6032111;29;20250;-77
2020/12/14 05:12:20;;;;;;;4.50;4.10;;;;;;;2.89;73.06;101823.50;6030229;29;20202;-77
2020/12/14 05:15:26;;;;;;;4.57;4.23;;;;;;;3.05;72.70;101849.88;6031860;29;20324;-77
2020/12/14 05:18:30;;;;;;;7.73;4.57;;;;;;;3.15;72.28;101835.38;6032703;29;20206;-78
2020/12/14 05:21:46;;;;;;;4.43;4.13;;;;;;;3.18;72.55;101856.63;6032059;29;20230;-78
2020/12/14 05:24:50;;;;;;;5.73;4.53;;;;;;;3.20;73.07;101858.34;6051541;29;20199;-78
2020/12/14 05:28:05;;;;;;;4.90;4.50;;;;;;;3.22;73.87;101861.75;6031990;29;20668;-79
2020/12/14 05:31:18;;;;;;;6.10;5.50;;;;;;;3.20;73.25;101853.81;6031294;29;20202;-77
2020/12/14 05:34:30;;;;;;;5.13;4.63;;;;;;;3.42;72.26;101858.84;6033681;29;20202;-77
2020/12/14 05:37:34;;;;;;;5.83;5.23;;;;;;;3.49;73.07;101849.19;6031933;29;20528;-77
2020/12/14 05:40:38;;;;;;;5.50;4.90;;;;;;;3.06;74.31;101851.53;6015605;29;20296;-78
2020/12/14 05:43:56;;;;;;;5.23;4.73;;;;;;;3.10;74.28;101858.38;6031479;29;20289;-76
2020/12/14 05:47:00;;;;;;;4.63;4.23;;;;;;;3.03;74.63;101841.06;6019004;29;20678;-78
2020/12/14 05:50:09;;;;;;;4.30;4.10;;;;;;;2.88;74.88;101837.09;6010291;29;20323;-79
2020/12/14 05:53:18;;;;;;;8.33;4.70;;;;;;;3.10;74.68;101852.97;6042050;29;20216;-78
2020/12/14 05:56:26;;;;;;;4.90;4.60;;;;;;;3.03;75.19;101863.47;6032992;29;20260;-76
2020/12/14 05:59:34;;;;;;;5.87;5.00;;;;;;;3.08;74.60;101860.38;6035957;29;20244;-77
2020/12/14 06:02:38;;;;;;;4.53;4.33;;;;;;;3.10;73.68;101852.97;6027133;29;20238;-78
2020/12/14 06:05:46;;;;;;;6.67;4.13;;;;;;;3.24;72.67;101855.22;6029661;29;20216;-77
2020/12/14 06:09:05;;;;;;;8.07;4.73;;;;;;;3.32;72.17;101852.63;6030939;29;20206;-77
2020/12/14 06:12:23;;;;;;;5.03;4.40;;;;;;;3.32;70.55;101855.34;6029210;29;21299;-77
2020/12/14 06:15:31;;;;;;;5.10;4.33;;;;;;;3.32;70.76;101855.34;6027725;29;20225;-77
2020/12/14 06:18:37;;;;;;;4.77;4.20;;;;;;;3.27;71.82;101841.44;6022975;29;20213;-77
2020/12/14 06:21:46;;;;;;;4.97;4.50;;;;;;;3.09;73.21;101845.88;6020168;29;20293;-77
2020/12/14 06:24:56;;;;;;;4.43;4.13;;;;;;;3.15;74.91;101861.50;6014560;29;20217;-77
2020/12/14 06:28:27;;;;;;;9.30;4.37;;;;;;;3.23;73.65;101858.91;6050420;29;20228;-81
2020/12/14 06:31:32;;;;;;;4.70;4.30;;;;;;;3.52;71.86;101870.47;6029125;29;20666;-78
2020/12/14 06:34:40;;;;;;;4.57;4.27;;;;;;;3.43;73.22;101865.97;6029082;29;20638;-77
2020/12/14 06:37:49;;;;;;;6.10;4.23;;;;;;;3.48;71.76;101858.28;6031782;29;20617;-77
2020/12/14 06:40:56;;;;;;;5.17;4.50;;;;;;;3.43;72.20;101865.97;6011681;29;20213;-77
2020/12/14 06:44:05;;;;;;;4.97;4.57;;;;;;;3.32;72.52;101867.97;6009200;29;20202;-77
2020/12/14 06:47:13;;;;;;;4.67;4.27;;;;;;;2.96;73.00;101846.19;6014401;29;20241;-79
2020/12/14 06:50:37;;;;;;;4.63;4.33;;;;;;;3.13;73.61;101869.69;6040231;29;20813;-76
2020/12/14 06:53:46;;;;;;;6.37;4.87;;;;;;;3.31;74.00;101859.06;6032218;29;20200;-76
2020/12/14 06:56:53;;;;;;;5.23;4.73;;;;;;;3.28;74.36;101843.16;6032687;29;20363;-77
2020/12/14 06:59:57;;;;;;;5.27;4.77;;;;;;;3.34;73.93;101872.22;6022334;29;20237;-77
2020/12/14 07:03:00;;;;;;;9.00;4.80;;;;;;;3.36;74.63;101875.66;6018044;29;20540;-77
2020/12/14 07:06:06;;;;;;;14.53;4.73;;;;;;;3.35;73.53;101868.53;6012611;29;20782;-77
2020/12/14 07:09:26;;;;;;;8.37;4.57;;;;;;;3.59;74.06;101881.56;6034892;29;20198;-78
2020/12/14 07:12:30;;;;;;;6.63;5.10;;;;;;;3.50;73.99;101867.09;6036221;29;20705;-77
2020/12/14 07:15:35;;;;;;;5.10;4.50;;;;;;;3.53;74.11;101872.19;6019119;29;20288;-76
2020/12/14 07:18:40;;;;;;;4.87;4.47;;;;;;;3.75;71.37;101877.22;6012738;29;20203;-77
2020/12/14 07:21:53;;;;;;;4.93;4.47;;;;;;;3.76;71.25;101881.63;6012582;29;20203;-77
2020/12/14 07:25:01;;;;;;;5.63;4.00;;;;;;;3.54;72.38;101873.91;6020629;29;20202;-77
2020/12/14 07:28:05;;;;;;;4.70;4.30;;;;;;;3.26;73.17;101872.13;6033193;29;20225;-76
2020/12/14 07:31:13;;;;;;;4.83;4.50;;;;;;;3.22;74.22;101868.00;6034644;29;20305;-79
2020/12/14 07:34:17;;;;;;;5.53;4.90;;;;;;;3.12;75.12;101883.34;6054996;29;20235;-77
2020/12/14 07:37:24;;;;;;;4.87;4.27;;;;;;;2.92;75.36;101849.31;6044231;29;20285;-78
2020/12/14 07:40:28;;;;;;;4.93;4.63;;;;;;;3.08;76.16;101873.84;6034169;29;20257;-78
2020/12/14 07:43:41;;;;;;;8.83;5.17;;;;;;;3.03;75.50;101857.25;6034728;29;20206;-79
2020/12/14 07:46:44;;;;;;;12.43;5.10;;;;;;;3.39;74.96;101875.34;6033970;29;20264;-77
2020/12/14 07:50:04;;;;;;;6.43;5.23;;;;;;;3.41;74.97;101873.38;6027746;29;20576;-77
2020/12/14 07:53:16;;;;;;;5.23;4.83;;;;;;;3.32;74.84;101874.22;6033939;29;20203;-77
2020/12/14 07:56:20;;;;;;;8.00;5.07;;;;;;;2.98;76.31;101832.53;6030937;29;20342;-77
2020/12/14 07:59:25;;;;;;;6.07;5.27;;;;;;;2.99;76.47;101839.66;6034870;29;20201;-78
2020/12/14 08:02:30;;;;;;;7.50;5.83;;;;;;;3.28;76.25;101867.44;6032650;29;20203;-77
2020/12/14 08:05:34;;;;;;;6.00;4.93;;;;;;;3.26;75.55;101872.13;6017192;29;20244;-78
2020/12/14 08:08:40;;;;;;;7.00;5.20;;;;;;;3.27;76.04;101881.03;6030544;29;20243;-77
2020/12/14 08:11:45;;;;;;;7.33;4.90;;;;;;;3.30;75.83;101873.53;6032701;29;20204;-77
2020/12/14 08:14:48;;;;;;;5.70;5.20;;;;;;;3.38;75.83;101879.06;6026136;29;20231;-77
2020/12/14 08:17:52;;;;;;;6.00;5.10;;;;;;;3.28;74.65;101878.22;6028550;29;20209;-77
2020/12/14 08:20:56;;;;;;;6.23;5.37;;;;;;;3.14;76.40;101870.56;6033477;29;20208;-77
2020/12/14 08:24:15;;;;;;;5.67;5.17;;;;;;;3.06;76.75;101867.72;6032794;29;20693;-77
2020/12/14 08:27:34;;;;;;;6.20;5.30;;;;;;;3.26;76.02;101869.44;6040365;29;21124;-76
2020/12/14 08:30:39;;;;;;;8.77;6.17;;;;;;;3.28;75.75;101882.75;6034482;29;20201;-76
2020/12/14 08:33:50;;;;;;;8.57;5.70;;;;;;;3.13;76.01;101820.34;6032775;29;20194;-76
2020/12/14 08:36:54;;;;;;;11.37;5.60;;;;;;;3.41;74.89;101862.56;6031947;29;20660;-77
2020/12/14 08:40:01;;;;;;;7.90;5.30;;;;;;;3.31;74.69;101868.97;6022866;29;20194;-78
2020/12/14 08:43:09;;;;;;;7.70;5.30;;;;;;;3.27;75.71;101876.50;6041783;29;20189;-78
2020/12/14 08:46:15;;;;;;;7.43;5.47;;;;;;;3.30;75.27;101870.81;6032711;29;20215;-78
2020/12/14 08:49:20;;;;;;;5.80;5.30;;;;;;;3.31;76.22;101877.94;6029052;29;20205;-78
2020/12/14 08:52:23;;;;;;;7.93;6.07;;;;;;;3.24;76.11;101857.06;6031005;29;20329;-78
2020/12/14 08:55:35;;;;;;;9.20;5.27;;;;;;;3.42;75.99;101885.84;6020649;29;20522;-77
2020/12/14 08:58:49;;;;;;;9.87;5.10;;;;;;;3.43;74.88;101857.88;6031911;29;20212;-77
2020/12/14 09:01:57;;;;;;;5.70;5.17;;;;;;;3.18;76.73;101872.81;6026920;29;20673;-77
2020/12/14 09:05:14;;;;;;;8.13;4.87;;;;;;;3.31;77.86;101872.53;6031368;29;20251;-78
2020/12/14 09:08:21;;;;;;;5.70;5.17;;;;;;;3.19;78.07;101879.06;6032191;29;20217;-78
2020/12/14 09:11:28;;;;;;;7.13;5.67;;;;;;;3.26;77.59;101874.81;6009390;29;21028;-78
2020/12/14 09:14:36;;;;;;;5.67;4.80;;;;;;;3.41;78.13;101870.66;6018231;29;20217;-77
2020/12/14 09:17:42;;;;;;;6.50;5.43;;;;;;;3.40;78.54;101871.66;6015306;29;20310;-77
2020/12/14 09:20:47;;;;;;;12.43;5.90;;;;;;;3.45;77.97;101872.06;6014924;29;20262;-77
2020/12/14 09:24:12;;;;;;;9.60;5.20;;;;;;;3.07;78.02;101837.09;6022232;29;20669;-77
2020/12/14 09:27:16;;;;;;;7.37;5.53;;;;;;;3.23;78.81;101853.53;6031045;29;20299;-77
2020/12/14 09:30:21;;;;;;;5.50;4.90;;;;;;;3.36;78.12;101864.84;6031185;29;20212;-78
2020/12/14 09:33:33;;;;;;;6.20;5.27;;;;;;;3.16;78.82;101838.91;6026577;29;20250;-77
2020/12/14 09:36:36;;;;;;;12.90;5.17;;;;;;;3.24;78.61;101863.31;6031529;29;20739;-78
2020/12/14 09:39:41;;;;;;;6.03;5.10;;;;;;;3.40;78.67;101852.78;6030975;29;20211;-77
2020/12/14 09:42:45;;;;;;;5.90;5.33;;;;;;;3.64;77.80;101861.22;6028529;29;20214;-76
2020/12/14 09:45:51;;;;;;;5.77;5.23;;;;;;;3.62;78.36;101832.69;6025780;29;20185;-80
2020/12/14 09:48:56;;;;;;;8.40;5.33;;;;;;;3.46;78.78;101827.06;6015570;29;20228;-78
2020/12/14 09:52:00;;;;;;;6.23;5.30;;;;;;;3.44;79.73;101832.56;6028116;29;20238;-79
2020/12/14 09:55:03;;;;;;;8.27;4.97;;;;;;;3.63;79.98;101856.81;6030783;29;20232;-77
2020/12/14 09:58:13;;;;;;;5.17;4.77;;;;;;;3.34;80.47;101858.72;6030026;29;20285;-77
2020/12/14 10:01:16;;;;;;;7.10;5.00;;;;;;;3.51;80.29;101852.59;6030015;29;20653;-77
2020/12/14 10:04:23;;;;;;;5.47;4.90;;;;;;;3.62;80.50;101855.09;6027404;29;20236;-78
2020/12/14 10:07:27;;;;;;;7.40;5.47;;;;;;;3.47;81.13;101837.69;6026533;29;20233;-78
2020/12/14 10:10:31;;;;;;;8.07;5.50;;;;;;;3.59;80.72;101851.88;6030842;29;20209;-80
2020/12/14 10:13:36;;;;;;;8.33;5.30;;;;;;;3.49;81.74;101849.19;6029832;29;20206;-76
2020/12/14 10:16:40;;;;;;;5.87;5.37;;;;;;;3.35;81.94;101857.75;6028466;29;20214;-77
2020/12/14 10:19:49;;;;;;;5.70;5.10;;;;;;;3.61;81.36;101853.41;6025852;29;20572;-78
2020/12/14 10:22:52;;;;;;;5.97;4.80;;;;;;;3.87;80.29;101852.75;6021995;29;20567;-77
2020/12/14 10:25:56;;;;;;;5.70;5.20;;;;;;;3.86;79.84;101846.50;6016583;29;20239;-78
2020/12/14 10:29:00;;;;;;;7.43;4.70;;;;;;;3.80;79.67;101856.03;6029503;29;20214;-78
2020/12/14 10:32:04;;;;;;;7.30;5.20;;;;;;;3.99;78.55;101856.94;6031478;29;20308;-76
2020/12/14 10:35:10;;;;;;;5.40;4.73;;;;;;;3.96;78.59;101862.63;6033815;29;20210;-77
2020/12/14 10:38:16;;;;;;;5.20;4.70;;;;;;;3.78;79.01;101855.34;6016853;29;20221;-75
2020/12/14 10:41:20;;;;;;;5.77;4.83;;;;;;;3.57;80.58;101854.69;6033970;29;20289;-80
2020/12/14 10:44:24;;;;;;;5.30;4.70;;;;;;;3.90;79.28;101857.84;6033727;29;20209;-77
2020/12/14 10:47:27;;;;;;;8.07;4.80;;;;;;;3.99;78.98;101851.53;6034585;29;20213;-77
2020/12/14 10:50:31;;;;;;;4.33;4.03;;;;;;;4.04;77.29;101849.25;6007015;29;721133;-81
2020/12/14 10:53:34;;;;;;;6.07;4.23;;;;;;;3.90;78.13;101853.31;6047484;29;20198;-77
2020/12/14 10:56:37;;;;;;;5.07;4.50;;;;;;;4.03;77.77;101847.56;6035012;29;20206;-76
2020/12/14 10:59:42;;;;;;;5.40;4.27;;;;;;;3.90;77.75;101847.91;6023264;29;20246;-77
2020/12/14 11:02:46;;;;;;;4.80;4.00;;;;;;;4.02;75.95;101838.59;6036954;29;20218;-77
2020/12/14 11:05:52;;;;;;;4.47;4.00;;;;;;;3.96;76.21;101822.13;6031350;29;20289;-77
2020/12/14 11:08:55;;;;;;;4.83;4.20;;;;;;;4.18;75.67;101862.25;6034254;29;20342;-78
2020/12/14 11:11:59;;;;;;;4.90;4.40;;;;;;;4.10;75.54;101848.66;6035017;29;20202;-77
2020/12/14 11:15:07;;;;;;;3.80;3.63;;;;;;;4.10;75.76;101843.25;6034431;29;20297;-83
2020/12/14 11:18:21;;;;;;;4.53;4.23;;;;;;;3.94;77.52;101843.03;6034683;29;20226;-77
2020/12/14 11:21:25;;;;;;;6.77;3.80;;;;;;;3.69;78.27;101856.22;6034767;29;20214;-77
2020/12/14 11:24:29;;;;;;;6.50;4.33;;;;;;;3.94;77.70;101848.44;6034197;29;20618;-78
2020/12/14 11:27:43;;;;;;;4.13;3.80;;;;;;;3.97;77.22;101824.69;6034655;29;20296;-77
2020/12/14 11:30:47;;;;;;;4.10;3.80;;;;;;;3.79;79.14;101834.59;6014853;29;20256;-76
2020/12/14 11:33:51;;;;;;;4.23;3.83;;;;;;;3.87;79.88;101841.94;6034275;29;20257;-77
2020/12/14 11:36:55;;;;;;;3.80;3.53;;;;;;;3.91;79.01;101851.44;6034506;29;20209;-76
2020/12/14 11:39:59;;;;;;;3.37;3.17;;;;;;;3.98;78.46;101839.06;6026667;29;20214;-79
2020/12/14 11:43:02;;;;;;;3.60;3.40;;;;;;;4.18;78.17;101854.16;6035286;29;20192;-79
2020/12/14 11:46:26;;;;;;;4.97;3.53;;;;;;;4.21;77.78;101845.75;6036988;29;20298;-83
2020/12/14 11:49:31;;;;;;;3.77;3.47;;;;;;;3.89;79.72;101837.25;6039953;29;20238;-77
2020/12/14 11:52:34;;;;;;;4.13;3.30;;;;;;;3.95;78.54;101801.56;6034884;29;20241;-80
2020/12/14 11:55:38;;;;;;;4.07;3.30;;;;;;;3.97;78.64;101810.34;6031022;29;20207;-77
2020/12/14 11:58:41;;;;;;;5.20;3.87;;;;;;;4.04;79.40;101838.44;6054949;29;20207;-77
2020/12/14 12:01:46;;;;;;;4.27;3.53;;;;;;;3.91;79.75;101827.13;6034947;29;20202;-78
2020/12/14 12:04:49;;;;;;;3.57;3.37;;;;;;;4.02;78.91;101835.03;6033616;29;20214;-79
2020/12/14 12:07:53;;;;;;;4.50;4.10;;;;;;;4.10;78.77;101833.28;6039951;29;20301;-76
2020/12/14 12:10:57;;;;;;;4.00;3.63;;;;;;;4.15;78.10;101840.94;6038563;29;20209;-77
2020/12/14 12:14:02;;;;;;;5.90;3.70;;;;;;;4.04;78.56;101822.22;6034962;29;20305;-79
2020/12/14 12:17:06;;;;;;;5.47;3.83;;;;;;;3.93;78.91;101830.56;6029555;29;20196;-77
2020/12/14 12:20:10;;;;;;;4.30;4.00;;;;;;;3.97;79.25;101834.66;6034486;29;20289;-76
2020/12/14 12:23:15;;;;;;;6.27;3.93;;;;;;;3.78;79.34;101833.75;6026396;29;20217;-79
2020/12/14 12:26:19;;;;;;;5.83;3.97;;;;;;;3.70;78.98;101793.13;6049838;29;20252;-78
2020/12/14 12:29:23;;;;;;;4.17;3.63;;;;;;;3.62;79.23;101801.13;6038267;29;20226;-79
2020/12/14 12:32:28;;;;;;;4.73;4.07;;;;;;;3.80;79.73;101815.53;6045479;29;20211;-78
2020/12/14 12:35:32;;;;;;;3.83;3.47;;;;;;;3.89;78.50;101791.34;6029686;29;20217;-79
2020/12/14 12:38:36;;;;;;;7.90;3.90;;;;;;;3.84;78.47;101799.03;6024715;29;20551;-78
2020/12/14 12:41:44;;;;;;;4.33;3.97;;;;;;;3.83;79.92;101813.56;6037853;29;20209;-78
2020/12/14 12:44:48;;;;;;;5.77;4.20;;;;;;;4.06;78.30;101804.03;6037054;29;20210;-77
2020/12/14 12:47:53;;;;;;;6.37;4.07;;;;;;;3.88;79.37;101800.47;6037927;29;20220;-79
2020/12/14 12:50:58;;;;;;;4.50;4.17;;;;;;;3.75;79.48;101790.84;6036118;29;20251;-78
2020/12/14 12:54:03;;;;;;;4.50;4.20;;;;;;;3.72;79.96;101791.13;6035657;29;20206;-76
2020/12/14 12:57:07;;;;;;;4.70;4.17;;;;;;;3.69;80.90;101777.97;6033082;29;20264;-80
2020/12/14 13:00:12;;;;;;;7.03;4.47;;;;;;;3.70;81.33;101776.09;6026236;29;20302;-80
2020/12/14 13:03:36;;;;;;;5.83;4.73;;;;;;;3.60;81.39;101759.94;6048181;29;20220;-78
2020/12/14 13:06:41;;;;;;;6.73;4.67;;;;;;;3.63;81.60;101765.06;6027660;29;20202;-80
2020/12/14 13:09:46;;;;;;;6.70;4.67;;;;;;;3.60;82.30;101769.88;6025112;29;20218;-77
2020/12/14 13:12:49;;;;;;;6.63;5.00;;;;;;;3.66;82.59;101764.75;6034275;29;20259;-76
2020/12/14 13:15:53;;;;;;;5.80;5.00;;;;;;;3.72;82.32;101774.94;6029027;29;20301;-78
2020/12/14 13:18:57;;;;;;;5.20;4.80;;;;;;;3.57;83.42;101765.66;6026431;29;20215;-77
2020/12/14 13:22:00;;;;;;;7.90;4.70;;;;;;;3.68;83.27;101761.91;6031452;29;20253;-78
2020/12/14 13:25:04;;;;;;;5.33;4.93;;;;;;;3.61;83.10;101758.97;6032153;29;20566;-79
2020/12/14 13:28:14;;;;;;;6.37;4.90;;;;;;;3.79;83.27;101781.47;6031565;29;20750;-79
2020/12/14 13:31:18;;;;;;;5.80;4.90;;;;;;;3.75;82.88;101785.44;6033650;29;20214;-78
2020/12/14 13:34:26;;;;;;;5.40;4.17;;;;;;;4.02;82.43;101781.88;6030047;29;20222;-77
2020/12/14 13:37:31;;;;;;;5.20;4.60;;;;;;;3.90;82.17;101766.06;6024266;29;20855;-79
2020/12/14 13:40:35;;;;;;;4.50;4.20;;;;;;;4.19;80.79;101788.31;6035352;29;20288;-79
2020/12/14 13:43:39;;;;;;;4.80;4.30;;;;;;;4.17;81.27;101790.31;6025459;29;20213;-82
2020/12/14 13:46:42;;;;;;;7.47;4.50;;;;;;;4.12;80.86;101771.00;6030752;29;20209;-78
2020/12/14 13:49:47;;;;;;;4.10;3.80;;;;;;;4.39;80.06;101795.28;6030747;29;21001;-78
2020/12/14 13:52:50;;;;;;;4.53;4.23;;;;;;;4.33;80.92;101796.75;6049122;29;20707;-79
2020/12/14 13:55:55;;;;;;;6.27;4.50;;;;;;;4.31;80.45;101776.28;6034448;29;20666;-77
2020/12/14 13:58:58;;;;;;;4.30;4.00;;;;;;;4.35;81.21;101793.88;6031404;29;20346;-77
2020/12/14 14:02:02;;;;;;;4.60;4.17;;;;;;;3.77;81.73;101710.56;6032518;29;20288;-79
2020/12/14 14:05:07;;;;;;;6.33;4.43;;;;;;;4.24;81.94;101786.00;6021835;29;20202;-77
2020/12/14 14:08:17;;;;;;;6.87;4.13;;;;;;;4.23;81.62;101770.81;6043714;29;20246;-81
2020/12/14 14:11:21;;;;;;;4.93;4.53;;;;;;;4.33;81.51;101785.09;6038625;29;20211;-79
2020/12/14 14:14:25;;;;;;;5.83;4.47;;;;;;;4.18;82.45;101792.03;6019728;29;20228;-78
2020/12/14 14:17:30;;;;;;;4.23;3.93;;;;;;;4.30;82.19;101777.28;6033417;29;20290;-78
2020/12/14 14:20:34;;;;;;;5.03;4.27;;;;;;;4.32;82.22;101794.19;6031328;29;20273;-78
2020/12/14 14:23:38;;;;;;;5.63;4.47;;;;;;;4.31;82.24;101787.94;6030337;29;20204;-79
2020/12/14 14:26:41;;;;;;;8.17;5.37;;;;;;;4.31;82.04;101792.50;6013930;29;20289;-78
2020/12/14 14:29:45;;;;;;;5.83;5.23;;;;;;;4.31;82.79;101787.09;6023047;29;20224;-78
2020/12/14 14:32:49;;;;;;;7.63;5.20;;;;;;;4.26;82.44;101781.31;6037082;29;20209;-78
2020/12/14 14:35:55;;;;;;;6.30;4.70;;;;;;;4.11;83.97;101764.75;6019861;29;20205;-79